Aérodrome :
LOGIN :

S'inscrire | Disclaimer

   EN    FR    IT 

 










Légende :    VFR   VFR Marginal   IFR   IFR Intensif   IFR Très Intensif
Visi : 
Plafond : 
>= 8 km
>= 3000ft
5 à 8 km
1000 à 3000 ft
1500m à 5 km
500 à 1000 ft
800 à 1500m
200 à 500 ft
< 800m
< 200 ft
Symboles :   Orages  Brouillard  Fortes neiges  Fortes précipitations  Vent > 20 kt
SIGMETs :   Divers  Orages  Givrage  Turbulence  Onde Orograph.  Cendres Volcan.






- Altitude de l'aérodrome : 392 ft
- Code IATA : CDG


LFPG - Paris-Aeroport Charles De Gaulle

DERNIER METAR :
  • 270600Z 20015KT 9000 BKN007 BKN009 09/08 Q1010 NOSIG

METARs EXPIRÉS :
  • 270530Z 20016KT 9000 -DZ BKN006 BKN009 09/08 Q1010 NOSIG
  • 270500Z 19013KT 8000 SCT005 BKN006 09/08 Q1010 NOSIG
  • 270430Z 19013KT 6000 -RA BKN009 09/08 Q1010 NOSIG
  • 270400Z 20016KT 9999 -RA BKN009 09/08 Q1011 NOSIG
  • 270330Z 20014KT 9999 BKN008 09/07 Q1011 TEMPO 20015G25KT

TAF TAF LFPG
Valide du 27 à 06h jusqu'au 28 à 12h UTC


270500Z 2706/2812 20010G20KT 9999 BKN012 TX08/2706Z TN04/2806Z
PROB40
TEMPO 2706/2718 4000 RA BKN006
BECMG 2718/2720 BKN016
TEMPO 2720/2812 23020G30KT 3000 SHRA SCT015CB BKN020
PROB40
TEMPO 2803/2807 24020G40KT
PROB30
TEMPO 2804/2810 -SHRAGS
ATIS : +33 1 48 62 10 92



MET'MAP, la Météo Aéronautique d'un coup d'oeil ! - Copyright ORBIFLY Décembre 2007 - Disclaimer

ORBIFLY MET'MAP TEAM :

Programmation & Développement : Alexandra Zaïnal
Sur une idée originale de : Baudouin d'Aumeries
Assistance à la programmation : Marc-Olivier Méhu
Soutien technique & logistique : Manuel Goepfert

Contact : metmap@orbifly.com




SOURCES & CREDITS :

   NOAA